createdAt,value
2018-03-21T00:02:07.665Z,47.25
2018-03-21T00:04:35.299Z,48.40
2018-03-21T00:07:03.504Z,48.13
2018-03-21T00:09:31.080Z,45.77
2018-03-21T00:11:58.619Z,47.73
2018-03-21T00:14:26.427Z,46.35
2018-03-21T00:16:53.968Z,43.80
2018-03-21T00:19:21.520Z,47.17
2018-03-21T00:21:49.357Z,46.77
2018-03-21T00:24:17.121Z,48.40
2018-03-21T00:26:44.680Z,48.77
2018-03-21T00:29:12.280Z,49.77
2018-03-21T00:31:39.824Z,46.33
2018-03-21T00:34:07.375Z,45.70
2018-03-21T00:36:34.966Z,40.80
2018-03-21T00:39:02.504Z,47.93
2018-03-21T00:41:30.043Z,49.93
2018-03-21T00:43:57.627Z,48.03
2018-03-21T00:46:25.175Z,48.70
2018-03-21T00:48:52.720Z,45.53
2018-03-21T00:51:20.568Z,47.28
2018-03-21T00:53:48.276Z,45.53
2018-03-21T00:56:16.474Z,43.90
2018-03-21T00:58:44.047Z,47.73
2018-03-21T01:01:11.591Z,48.00
2018-03-21T01:03:39.388Z,48.20
2018-03-21T01:06:07.007Z,45.23
2018-03-21T01:08:34.572Z,49.93
2018-03-21T01:11:02.192Z,46.57
2018-03-21T01:13:29.829Z,48.60
2018-03-21T01:15:57.416Z,48.93
2018-03-21T01:18:25.075Z,47.97
2018-03-21T01:20:52.732Z,50.47
2018-03-21T01:23:20.340Z,52.15
2018-03-21T01:25:47.952Z,51.67
2018-03-21T01:28:16.688Z,51.25
2018-03-21T01:30:44.323Z,48.10
2018-03-21T01:33:11.956Z,51.57
2018-03-21T01:35:40.529Z,52.88
2018-03-21T01:38:08.840Z,53.90
2018-03-21T01:40:36.413Z,55.50
2018-03-21T01:43:03.986Z,51.47
2018-03-21T01:45:31.600Z,52.20
2018-03-21T01:47:59.191Z,51.20
2018-03-21T01:50:26.762Z,48.53
2018-03-21T01:53:05.960Z,47.87
2018-03-21T01:55:34.464Z,45.85
2018-03-21T01:58:02.004Z,49.30
2018-03-21T02:00:29.551Z,46.30
2018-03-21T02:02:57.895Z,45.10
2018-03-21T02:05:25.680Z,46.35
2018-03-21T02:07:53.227Z,47.47
2018-03-21T02:10:20.810Z,44.57
2018-03-21T02:12:48.347Z,47.03
2018-03-21T02:15:16.548Z,45.95
2018-03-21T02:17:44.427Z,44.67
2018-03-21T02:20:11.978Z,46.00
2018-03-21T02:22:40.292Z,46.80
2018-03-21T02:25:07.871Z,43.17
2018-03-21T02:27:35.488Z,45.60
2018-03-21T02:30:03.020Z,43.73
2018-03-21T02:32:30.596Z,43.97
2018-03-21T02:34:58.164Z,45.83
2018-03-21T02:37:25.720Z,44.42
2018-03-21T02:39:53.858Z,44.03
2018-03-21T02:42:21.408Z,42.90
2018-03-21T02:44:48.947Z,42.80
2018-03-21T02:47:16.513Z,43.37
2018-03-21T02:49:44.057Z,41.57
2018-03-21T02:52:11.607Z,41.67
2018-03-21T02:54:39.208Z,34.77
2018-03-21T02:57:06.747Z,38.10
2018-03-21T02:59:34.304Z,36.67
2018-03-21T03:02:02.688Z,33.50
2018-03-21T03:04:30.241Z,32.20
2018-03-21T03:06:58.183Z,34.47
2018-03-21T03:09:25.775Z,35.83
2018-03-21T03:11:53.319Z,36.13
2018-03-21T03:14:20.856Z,32.00
2018-03-21T03:16:49.186Z,35.00
2018-03-21T03:19:16.735Z,30.67
2018-03-21T03:21:44.294Z,31.87
2018-03-21T03:24:12.259Z,32.83
2018-03-21T03:26:39.800Z,31.30
2018-03-21T03:29:07.348Z,31.90
2018-03-21T03:31:34.934Z,33.03
2018-03-21T03:34:02.475Z,34.10
2018-03-21T03:36:30.011Z,28.07
2018-03-21T03:38:57.580Z,32.80
2018-03-21T03:41:25.118Z,35.38
2018-03-21T03:43:52.659Z,33.20
2018-03-21T03:46:20.544Z,29.90
2018-03-21T03:48:48.083Z,35.23
2018-03-21T03:51:16.485Z,35.53
2018-03-21T03:53:44.068Z,35.17
2018-03-21T03:56:11.619Z,35.45
2018-03-21T03:58:39.927Z,35.00
2018-03-21T04:01:07.498Z,36.03
2018-03-21T04:03:35.048Z,37.63
2018-03-21T04:06:02.592Z,38.60
2018-03-21T04:08:30.710Z,37.97
2018-03-21T04:10:58.263Z,34.70
2018-03-21T04:13:25.827Z,35.23
2018-03-21T04:15:53.394Z,36.40
2018-03-21T04:18:20.931Z,36.13
2018-03-21T04:20:48.470Z,37.03
2018-03-21T04:23:16.487Z,35.77
2018-03-21T04:25:44.010Z,37.00
2018-03-21T04:28:11.551Z,33.60
2018-03-21T04:30:39.597Z,34.50
2018-03-21T04:33:07.144Z,33.13
2018-03-21T04:35:34.700Z,34.33
2018-03-21T04:38:02.275Z,34.00
2018-03-21T04:40:29.839Z,33.20
2018-03-21T04:42:57.374Z,32.03
2018-03-21T04:45:24.939Z,32.20
2018-03-21T04:47:52.479Z,32.60
2018-03-21T04:50:20.027Z,30.05
2018-03-21T04:52:47.891Z,28.70
2018-03-21T04:55:16.475Z,26.58
2018-03-21T04:57:44.011Z,23.43
2018-03-21T05:00:12.345Z,28.12
2018-03-21T05:02:39.887Z,27.40
2018-03-21T05:05:07.458Z,26.77
2018-03-21T05:07:35.023Z,28.80
2018-03-21T05:10:03.040Z,28.37
2018-03-21T05:12:30.604Z,27.37
2018-03-21T05:14:58.477Z,25.33
2018-03-21T05:17:26.023Z,26.40
2018-03-21T05:19:53.566Z,24.10
2018-03-21T05:22:21.144Z,23.07
2018-03-21T05:24:48.687Z,24.23
2018-03-21T05:27:16.532Z,22.80
2018-03-21T05:29:44.095Z,23.90
2018-03-21T05:32:11.644Z,23.40
2018-03-21T05:34:39.200Z,24.70
2018-03-21T05:37:07.411Z,24.60
2018-03-21T05:39:34.979Z,25.13
2018-03-21T05:42:02.521Z,25.17
2018-03-21T05:44:30.086Z,25.20
2018-03-21T05:46:57.627Z,22.53
2018-03-21T05:49:25.175Z,22.67
2018-03-21T05:51:52.738Z,24.33
2018-03-21T05:54:20.279Z,21.37
2018-03-21T05:56:47.821Z,22.10
2018-03-21T05:59:16.554Z,21.25
2018-03-21T06:01:44.101Z,20.40
2018-03-21T06:04:11.640Z,20.03
2018-03-21T06:06:39.224Z,18.10
2018-03-21T06:09:06.770Z,18.53
2018-03-21T06:11:34.765Z,19.23
2018-03-21T06:14:02.333Z,14.17
2018-03-21T06:16:29.939Z,19.20
2018-03-21T06:18:57.526Z,18.30
2018-03-21T06:21:25.153Z,12.63
2018-03-21T06:23:52.701Z,17.87
2018-03-21T06:26:21.010Z,17.55
2018-03-21T06:28:48.575Z,16.17
2018-03-21T06:31:16.438Z,17.10
2018-03-21T06:33:43.988Z,15.70
2018-03-21T06:36:11.559Z,17.17
2018-03-21T06:38:39.107Z,15.90
2018-03-21T06:41:06.657Z,14.00
2018-03-21T06:43:34.253Z,12.27
2018-03-21T06:46:01.871Z,16.30
2018-03-21T06:48:30.494Z,15.07
2018-03-21T06:50:58.259Z,16.53
2018-03-21T06:53:25.805Z,14.97
2018-03-21T06:55:53.353Z,14.50
2018-03-21T06:58:20.930Z,14.73
2018-03-21T07:00:48.533Z,16.20
2018-03-21T07:03:16.422Z,14.63
2018-03-21T07:05:44.821Z,13.43
2018-03-21T07:08:12.361Z,15.13
2018-03-21T07:10:39.949Z,12.37
2018-03-21T07:13:08.272Z,14.70
2018-03-21T07:15:47.901Z,12.23
2018-03-21T07:18:17.295Z,12.63
2018-03-21T07:20:44.838Z,13.80
2018-03-21T07:23:12.416Z,9.63
2018-03-21T07:25:40.416Z,10.50
2018-03-21T07:28:08.016Z,14.03
2018-03-21T07:30:35.830Z,11.65
2018-03-21T07:33:04.222Z,13.95
2018-03-21T07:35:32.654Z,12.90
2018-03-21T07:38:00.264Z,11.83
2018-03-21T07:40:28.156Z,11.40
2018-03-21T07:42:55.790Z,10.77
2018-03-21T07:45:23.441Z,11.93
2018-03-21T07:47:51.153Z,14.30
2018-03-21T07:50:18.938Z,11.23
2018-03-21T07:52:46.603Z,10.75
2018-03-21T07:55:26.608Z,12.48
2018-03-21T08:00:38.708Z,12.83
2018-03-21T08:03:09.813Z,10.40
2018-03-21T08:05:37.477Z,11.17
2018-03-21T08:08:05.257Z,10.47
2018-03-21T08:10:32.824Z,11.20
2018-03-21T08:13:00.385Z,9.77
2018-03-21T08:15:29.719Z,13.03
2018-03-21T08:17:58.412Z,11.80
2018-03-21T08:20:26.851Z,12.07
2018-03-21T08:22:54.515Z,11.73
2018-03-21T08:25:22.148Z,10.80
2018-03-21T08:27:49.716Z,11.67
2018-03-21T08:30:17.596Z,11.40
2018-03-21T08:32:45.144Z,12.60
2018-03-21T08:35:12.684Z,11.90
2018-03-21T08:37:40.266Z,12.73
2018-03-21T08:40:07.800Z,11.37
2018-03-21T08:42:37.636Z,11.63
2018-03-21T08:45:05.205Z,12.10
2018-03-21T08:47:32.748Z,12.90
2018-03-21T08:50:00.279Z,12.60
2018-03-21T08:52:28.629Z,12.30
2018-03-21T08:54:56.156Z,13.40
2018-03-21T08:57:23.691Z,12.15
2018-03-21T08:59:51.854Z,13.80
2018-03-21T09:02:19.428Z,14.07
2018-03-21T09:04:46.968Z,13.33
2018-03-21T09:07:15.511Z,14.10
2018-03-21T09:09:43.063Z,13.30
2018-03-21T09:12:10.857Z,13.80
2018-03-21T09:14:38.966Z,14.70
2018-03-21T09:17:07.132Z,15.85
2018-03-21T09:19:35.440Z,15.83
2018-03-21T09:22:03.005Z,14.60
2018-03-21T09:24:30.545Z,13.73
2018-03-21T09:26:58.100Z,15.03
2018-03-21T09:29:25.676Z,14.93
2018-03-21T09:31:53.208Z,15.47
2018-03-21T09:34:20.776Z,14.30
2018-03-21T09:36:49.104Z,14.77
2018-03-21T09:39:16.643Z,16.30
2018-03-21T09:41:44.179Z,15.37
2018-03-21T09:44:11.746Z,16.53
2018-03-21T09:46:39.332Z,16.80
2018-03-21T09:49:06.863Z,16.57
2018-03-21T09:51:34.477Z,16.48
2018-03-21T09:54:02.043Z,16.60
2018-03-21T09:56:29.667Z,16.98
2018-03-21T09:58:57.460Z,17.30
2018-03-21T10:01:24.997Z,15.15
2018-03-21T10:03:52.612Z,16.70
2018-03-21T10:06:20.952Z,16.92
2018-03-21T10:08:48.543Z,16.87
2018-03-21T10:11:16.472Z,16.85
2018-03-21T10:13:44.027Z,16.30
2018-03-21T10:16:11.561Z,17.95
2018-03-21T10:18:39.345Z,16.83
2018-03-21T10:21:07.605Z,16.47
2018-03-21T10:23:35.136Z,17.27
2018-03-21T10:26:02.676Z,16.93
2018-03-21T10:28:30.256Z,15.97
2018-03-21T10:30:58.559Z,17.57
2018-03-21T10:33:26.863Z,18.90
2018-03-21T10:35:54.432Z,18.73
2018-03-21T10:38:21.977Z,17.77
2018-03-21T10:40:49.513Z,19.12
2018-03-21T10:43:17.407Z,19.60
2018-03-21T10:45:44.958Z,20.27
2018-03-21T10:48:12.499Z,19.20
2018-03-21T10:50:40.358Z,19.80
2018-03-21T10:53:07.897Z,18.60
2018-03-21T10:55:36.203Z,18.58
2018-03-21T10:58:03.776Z,20.63
2018-03-21T11:00:31.327Z,19.15
2018-03-21T11:03:02.669Z,19.00
2018-03-21T11:05:30.994Z,18.37
2018-03-21T11:07:58.540Z,18.92
2018-03-21T11:10:26.083Z,17.67
2018-03-21T11:12:53.644Z,17.50
2018-03-21T11:15:21.187Z,18.40
2018-03-21T11:17:48.724Z,15.67
2018-03-21T11:20:17.565Z,17.92
2018-03-21T11:22:45.618Z,18.07
2018-03-21T11:25:24.176Z,18.77
2018-03-21T11:30:15.462Z,16.80
2018-03-21T11:32:43.027Z,17.17
2018-03-21T11:35:10.564Z,18.90
2018-03-21T11:37:38.114Z,17.77
2018-03-21T11:40:06.448Z,17.33
2018-03-21T11:42:34.004Z,17.17
2018-03-21T11:45:01.592Z,16.30
2018-03-21T11:47:29.155Z,15.90
2018-03-21T11:49:56.692Z,16.37
2018-03-21T11:52:24.257Z,15.80
2018-03-21T11:54:51.839Z,16.20
2018-03-21T11:57:20.152Z,16.30
2018-03-21T11:59:47.693Z,17.30
2018-03-21T12:02:16.328Z,14.90
2018-03-21T12:04:43.876Z,13.83
2018-03-21T12:07:11.439Z,13.65
2018-03-21T12:09:39.632Z,15.93
2018-03-21T12:12:07.176Z,14.20
2018-03-21T12:14:34.757Z,13.10
2018-03-21T12:17:02.354Z,13.90
2018-03-21T12:19:30.225Z,14.70
2018-03-21T12:21:58.414Z,15.43
2018-03-21T12:24:25.992Z,15.17
2018-03-21T12:26:53.544Z,15.45
2018-03-21T12:29:21.084Z,17.10
2018-03-21T12:31:49.048Z,18.00
2018-03-21T12:34:16.845Z,17.15
2018-03-21T12:36:44.400Z,18.10
2018-03-21T12:39:16.552Z,17.60
2018-03-21T12:41:44.115Z,16.33
2018-03-21T12:44:11.670Z,15.77
2018-03-21T12:46:39.232Z,14.40
2018-03-21T12:49:06.783Z,17.13
2018-03-21T12:51:34.345Z,15.13
2018-03-21T12:54:02.409Z,15.37
2018-03-21T12:56:29.956Z,14.37
2018-03-21T12:58:58.293Z,15.13
2018-03-21T13:01:25.884Z,12.23
2018-03-21T13:03:53.436Z,13.18
2018-03-21T13:06:20.983Z,11.43
2018-03-21T13:08:48.562Z,11.30
2018-03-21T13:11:16.412Z,9.93
2018-03-21T13:13:43.969Z,9.20
2018-03-21T13:16:11.765Z,10.48
2018-03-21T13:18:39.293Z,11.40
2018-03-21T13:21:06.873Z,11.37
2018-03-21T13:23:34.700Z,13.05
2018-03-21T13:26:02.264Z,14.40
2018-03-21T13:28:29.834Z,12.50
2018-03-21T13:30:57.424Z,11.87
2018-03-21T13:33:25.022Z,13.87
2018-03-21T13:35:52.580Z,15.25
2018-03-21T13:38:20.756Z,15.07
2018-03-21T13:40:48.307Z,15.50
2018-03-21T13:43:16.458Z,15.52
2018-03-21T13:45:44.799Z,14.70
2018-03-21T13:48:12.426Z,15.60
2018-03-21T13:50:39.991Z,15.40
2018-03-21T13:53:08.830Z,15.30
2018-03-21T13:55:37.132Z,15.87
2018-03-21T13:58:04.755Z,15.63
2018-03-21T14:00:32.532Z,12.05
2018-03-21T14:03:00.114Z,12.07
2018-03-21T14:05:27.736Z,12.30
2018-03-21T14:07:55.297Z,12.70
2018-03-21T14:10:22.852Z,13.27
2018-03-21T14:12:50.401Z,12.93
2018-03-21T14:15:18.675Z,12.63
2018-03-21T14:17:46.215Z,11.77
2018-03-21T14:20:25.759Z,13.55
2018-03-21T14:25:43.275Z,12.03
2018-03-21T14:28:13.686Z,13.43
2018-03-21T14:30:44.438Z,13.13
2018-03-21T14:33:12.028Z,12.53
2018-03-21T14:35:39.592Z,11.70
2018-03-21T14:38:07.152Z,11.40
2018-03-21T14:40:35.332Z,11.20
2018-03-21T14:43:02.942Z,12.13
2018-03-21T14:45:30.507Z,11.68
2018-03-21T14:47:58.864Z,13.53
2018-03-21T14:50:26.425Z,12.70
2018-03-21T14:52:54.812Z,12.77
2018-03-21T14:55:22.390Z,12.90
2018-03-21T14:57:49.950Z,13.10
2018-03-21T15:00:17.526Z,13.13
2018-03-21T15:02:45.698Z,14.17
2018-03-21T15:05:14.701Z,14.27
2018-03-21T15:07:43.598Z,13.23
2018-03-21T15:10:11.231Z,13.53
2018-03-21T15:12:40.624Z,13.27
2018-03-21T15:15:08.946Z,12.70
2018-03-21T15:17:36.644Z,13.50
2018-03-21T15:20:04.201Z,14.27
2018-03-21T15:22:31.760Z,14.43
2018-03-21T15:24:59.759Z,14.97
2018-03-21T15:27:27.828Z,14.87
2018-03-21T15:29:56.140Z,15.47
2018-03-21T15:32:23.709Z,14.05
2018-03-21T15:34:51.262Z,14.17
2018-03-21T15:37:19.574Z,15.40
2018-03-21T15:39:47.138Z,15.30
2018-03-21T15:42:15.498Z,14.75
2018-03-21T15:44:43.058Z,15.67
2018-03-21T15:47:11.028Z,16.60
2018-03-21T15:49:38.589Z,14.57
2018-03-21T15:52:06.136Z,14.50
2018-03-21T15:54:34.499Z,14.77
2018-03-21T15:57:02.036Z,15.60
2018-03-21T15:59:29.579Z,14.03
2018-03-21T16:01:57.168Z,15.10
2018-03-21T16:04:24.718Z,14.77
2018-03-21T16:06:52.261Z,14.70
2018-03-21T16:09:21.327Z,14.65
2018-03-21T16:11:48.870Z,14.60
2018-03-21T16:14:16.417Z,13.48
2018-03-21T16:16:44.038Z,12.97
2018-03-21T16:19:12.568Z,12.90
2018-03-21T16:21:40.111Z,13.80
2018-03-21T16:24:08.115Z,13.40
2018-03-21T16:26:36.457Z,13.40
2018-03-21T16:29:04.511Z,14.60
2018-03-21T16:31:33.332Z,13.70
2018-03-21T16:34:00.912Z,12.90
2018-03-21T16:36:28.459Z,13.23
2018-03-21T16:38:56.892Z,14.00
2018-03-21T16:41:26.908Z,15.27
2018-03-21T16:43:54.454Z,14.25
2018-03-21T16:46:22.022Z,13.30
2018-03-21T16:48:50.340Z,13.00
2018-03-21T16:51:17.894Z,13.70
2018-03-21T16:53:45.861Z,14.00
2018-03-21T16:56:25.850Z,13.70
2018-03-21T17:02:02.341Z,11.67
2018-03-21T17:04:29.884Z,11.87
2018-03-21T17:06:57.419Z,11.80
2018-03-21T17:09:25.197Z,12.17
2018-03-21T17:11:52.964Z,12.20
2018-03-21T17:14:20.490Z,11.30
2018-03-21T17:16:48.836Z,11.73
2018-03-21T17:19:16.492Z,11.85
2018-03-21T17:21:44.039Z,13.70
2018-03-21T17:24:11.608Z,10.87
2018-03-21T17:26:39.184Z,11.77
2018-03-21T17:29:07.392Z,11.30
2018-03-21T17:31:35.473Z,11.90
2018-03-21T17:34:03.068Z,12.20
2018-03-21T17:36:30.656Z,11.32
2018-03-21T17:38:58.228Z,13.60
2018-03-21T17:41:25.768Z,10.87
2018-03-21T17:43:53.317Z,11.53
2018-03-21T17:46:20.959Z,9.40
2018-03-21T17:48:48.500Z,11.00
2018-03-21T17:51:16.506Z,21.37
2018-03-21T17:53:44.110Z,21.20
2018-03-21T17:56:11.685Z,17.45
2018-03-21T17:58:39.265Z,13.40
2018-03-21T18:01:06.815Z,12.70
2018-03-21T18:03:35.145Z,13.80
2018-03-21T18:06:02.708Z,13.77
2018-03-21T18:08:30.301Z,12.77
2018-03-21T18:10:57.854Z,12.10
2018-03-21T18:13:25.404Z,14.50
2018-03-21T18:15:54.056Z,13.50
2018-03-21T18:18:21.592Z,14.13
2018-03-21T18:20:49.140Z,13.30
2018-03-21T18:23:16.740Z,11.50
2018-03-21T18:25:45.375Z,14.00
2018-03-21T18:28:25.099Z,15.30
2018-03-21T18:33:27.344Z,17.73
2018-03-21T18:35:54.882Z,16.40
2018-03-21T18:38:22.444Z,14.77
2018-03-21T18:40:50.008Z,13.37
2018-03-21T18:43:17.548Z,14.93
2018-03-21T18:45:45.132Z,13.00
2018-03-21T18:48:13.652Z,11.83
2018-03-21T18:50:41.230Z,16.17
2018-03-21T18:53:09.628Z,18.77
2018-03-21T18:55:37.396Z,14.87
2018-03-21T18:58:04.956Z,16.77
2018-03-21T19:00:32.537Z,19.12
2018-03-21T19:03:00.149Z,19.87
2018-03-21T19:05:27.768Z,19.50
2018-03-21T19:07:55.373Z,17.53
2018-03-21T19:10:22.963Z,19.87
2018-03-21T19:12:52.958Z,19.83
2018-03-21T19:15:20.476Z,19.12
2018-03-21T19:17:48.456Z,19.10
2018-03-21T19:20:16.459Z,19.73
2018-03-21T19:22:44.076Z,19.67
2018-03-21T19:25:11.669Z,22.13
2018-03-21T19:27:39.298Z,20.57
2018-03-21T19:30:06.870Z,20.30
2018-03-21T19:32:34.470Z,22.50
2018-03-21T19:35:03.375Z,24.97
2018-03-21T19:37:30.925Z,29.63
2018-03-21T19:39:58.517Z,27.80
2018-03-21T19:42:26.073Z,23.95
2018-03-21T19:44:53.628Z,26.00
2018-03-21T19:47:21.227Z,28.63
2018-03-21T19:49:48.767Z,29.13
2018-03-21T19:52:17.245Z,26.08
2018-03-21T19:54:44.844Z,24.93
2018-03-21T19:57:12.399Z,24.15
2018-03-21T19:59:39.951Z,24.87
2018-03-21T20:02:07.652Z,23.30
2018-03-21T20:04:36.008Z,23.20
2018-03-21T20:07:04.338Z,24.35
2018-03-21T20:09:32.677Z,26.33
2018-03-21T20:12:00.228Z,22.20
2018-03-21T20:14:28.531Z,25.20
2018-03-21T20:16:56.099Z,22.73
2018-03-21T20:19:23.645Z,23.70
2018-03-21T20:21:51.956Z,25.77
2018-03-21T20:24:20.117Z,29.90
2018-03-21T20:26:47.655Z,36.53
2018-03-21T20:29:17.296Z,34.80
2018-03-21T20:31:44.903Z,30.80
2018-03-21T20:34:12.448Z,28.30
2018-03-21T20:36:40.558Z,25.00
2018-03-21T20:39:08.896Z,24.03
2018-03-21T20:41:37.687Z,23.92
2018-03-21T20:44:05.244Z,23.43
2018-03-21T20:46:32.857Z,23.20
2018-03-21T20:49:01.544Z,24.20
2018-03-21T20:51:29.101Z,25.90
2018-03-21T20:53:56.697Z,24.03
2018-03-21T20:56:24.279Z,24.63
2018-03-21T20:58:52.618Z,25.20
2018-03-21T21:01:20.952Z,25.97
2018-03-21T21:03:49.269Z,23.65
2018-03-21T21:06:16.824Z,25.20
2018-03-21T21:08:44.448Z,25.20
2018-03-21T21:11:13.837Z,25.17
2018-03-21T21:13:41.389Z,24.70
2018-03-21T21:16:08.956Z,26.00
2018-03-21T21:18:36.500Z,23.85
2018-03-21T21:21:04.044Z,23.23
2018-03-21T21:23:31.616Z,24.77
2018-03-21T21:25:59.214Z,24.03
2018-03-21T21:28:26.732Z,26.47
2018-03-21T21:30:54.605Z,24.20
2018-03-21T21:33:22.148Z,23.97
2018-03-21T21:35:49.736Z,26.00
2018-03-21T21:38:17.612Z,24.97
2018-03-21T21:40:45.266Z,24.67
2018-03-21T21:43:13.742Z,25.07
2018-03-21T21:45:41.482Z,25.80
2018-03-21T21:48:09.436Z,24.93
2018-03-21T21:50:37.056Z,27.33
2018-03-21T21:53:05.065Z,23.87
2018-03-21T21:55:32.652Z,24.12
2018-03-21T21:58:00.204Z,24.90
2018-03-21T22:00:27.831Z,26.20
2018-03-21T22:02:55.384Z,24.42
2018-03-21T22:05:22.924Z,27.02
2018-03-21T22:07:50.549Z,25.75
2018-03-21T22:10:18.457Z,26.30
2018-03-21T22:12:45.995Z,24.70
2018-03-21T22:15:15.860Z,26.70
2018-03-21T22:17:43.403Z,25.40
2018-03-21T22:20:11.717Z,23.00
2018-03-21T22:22:39.289Z,24.67
2018-03-21T22:25:06.827Z,23.77
2018-03-21T22:27:34.383Z,26.27
2018-03-21T22:30:01.963Z,23.77
2018-03-21T22:32:29.519Z,24.40
2018-03-21T22:34:57.061Z,25.60
2018-03-21T22:37:25.082Z,24.70
2018-03-21T22:42:55.538Z,23.40
2018-03-21T22:45:23.211Z,24.97
2018-03-21T22:47:51.492Z,26.17
2018-03-21T22:50:19.072Z,25.10
2018-03-21T22:52:46.639Z,26.50
2018-03-21T22:55:16.328Z,27.80
2018-03-21T22:57:44.555Z,25.60
2018-03-21T23:00:12.105Z,26.10
2018-03-21T23:02:39.643Z,26.20
2018-03-21T23:05:07.260Z,26.63
2018-03-21T23:07:35.596Z,26.60
2018-03-21T23:10:03.227Z,24.83
2018-03-21T23:12:30.817Z,23.63
2018-03-21T23:14:58.374Z,22.47
2018-03-21T23:17:25.937Z,24.40
2018-03-21T23:19:53.594Z,24.98
2018-03-21T23:22:21.165Z,24.70
2018-03-21T23:24:48.781Z,23.53
2018-03-21T23:27:16.488Z,24.93
2018-03-21T23:29:44.086Z,23.43
2018-03-21T23:32:11.680Z,22.42
2018-03-21T23:34:39.273Z,23.43
2018-03-21T23:37:06.837Z,22.40
2018-03-21T23:39:34.407Z,22.60
2018-03-21T23:42:02.217Z,23.00
2018-03-21T23:44:29.960Z,21.53
2018-03-21T23:46:58.344Z,22.50
2018-03-21T23:49:25.938Z,23.25
2018-03-21T23:51:53.538Z,23.25
2018-03-21T23:54:21.113Z,24.97
2018-03-21T23:56:48.706Z,24.73
2018-03-21T23:59:16.449Z,24.92
